createdAt,value
2018-03-25T00:01:21.575Z,6.71
2018-03-25T00:03:50.180Z,6.69
2018-03-25T00:06:19.227Z,6.41
2018-03-25T00:08:47.506Z,6.21
2018-03-25T00:11:15.799Z,6.20
2018-03-25T00:13:44.959Z,6.11
2018-03-25T00:16:13.209Z,6.09
2018-03-25T00:18:41.636Z,6.03
2018-03-25T00:21:10.836Z,6.13
2018-03-25T00:23:39.104Z,5.98
2018-03-25T00:26:07.994Z,5.84
2018-03-25T00:28:36.338Z,5.85
2018-03-25T00:31:04.595Z,5.75
2018-03-25T00:33:32.889Z,5.86
2018-03-25T00:36:01.164Z,5.85
2018-03-25T00:38:29.448Z,5.93
2018-03-25T00:40:57.793Z,5.93
2018-03-25T00:43:26.830Z,5.74
2018-03-25T00:45:55.084Z,5.73
2018-03-25T00:48:23.369Z,5.67
2018-03-25T00:50:51.700Z,5.95
2018-03-25T00:53:20.783Z,5.56
2018-03-25T00:55:49.020Z,5.63
2018-03-25T00:58:17.269Z,5.73
2018-03-25T01:00:45.570Z,5.82
2018-03-25T01:03:13.915Z,5.58
2018-03-25T01:08:11.212Z,5.40
2018-03-25T01:10:39.712Z,5.49
2018-03-25T01:13:10.766Z,5.44
2018-03-25T01:15:57.680Z,5.39
2018-03-25T01:18:26.817Z,5.44
2018-03-25T01:20:55.156Z,5.36
2018-03-25T01:23:23.608Z,5.34
2018-03-25T01:25:51.926Z,5.27
2018-03-25T01:28:20.973Z,5.14
2018-03-25T01:30:49.229Z,5.17
2018-03-25T01:33:17.514Z,5.18
2018-03-25T01:35:45.793Z,5.23
2018-03-25T01:38:14.059Z,5.27
2018-03-25T01:40:42.321Z,5.23
2018-03-25T01:43:11.795Z,5.18
2018-03-25T01:45:40.819Z,5.07
2018-03-25T01:48:09.119Z,5.09
2018-03-25T01:50:38.191Z,5.23
2018-03-25T01:53:06.469Z,5.20
2018-03-25T01:55:34.740Z,5.15
2018-03-25T01:58:03.024Z,5.27
2018-03-25T02:00:31.284Z,5.16
2018-03-25T02:02:59.564Z,4.96
2018-03-25T02:05:28.346Z,5.01
2018-03-25T02:07:56.597Z,4.92
2018-03-25T02:10:25.694Z,4.73
2018-03-25T02:12:54.718Z,4.76
2018-03-25T02:15:23.199Z,4.67
2018-03-25T02:17:51.458Z,4.54
2018-03-25T02:20:19.745Z,4.46
2018-03-25T02:22:48.671Z,4.44
2018-03-25T02:25:17.059Z,4.49
2018-03-25T02:27:45.391Z,4.42
2018-03-25T02:30:13.654Z,4.47
2018-03-25T02:32:42.059Z,4.44
2018-03-25T02:35:11.254Z,4.39
2018-03-25T02:37:39.527Z,4.27
2018-03-25T02:40:07.780Z,4.48
2018-03-25T02:42:36.063Z,4.45
2018-03-25T02:45:04.337Z,4.37
2018-03-25T02:47:32.610Z,4.25
2018-03-25T02:50:01.745Z,4.34
2018-03-25T02:52:30.953Z,4.43
2018-03-25T02:55:00.021Z,4.14
2018-03-25T02:57:28.339Z,4.08
2018-03-25T02:59:57.410Z,4.09
2018-03-25T03:02:25.683Z,4.14
2018-03-25T03:04:54.841Z,3.88
2018-03-25T03:07:23.102Z,3.97
2018-03-25T03:09:51.371Z,3.89
2018-03-25T03:12:20.675Z,3.91
2018-03-25T03:14:48.963Z,3.77
2018-03-25T03:17:17.211Z,3.67
2018-03-25T03:19:46.431Z,3.69
2018-03-25T03:22:14.730Z,3.48
2018-03-25T03:24:43.006Z,3.55
2018-03-25T03:27:11.260Z,3.29
2018-03-25T03:29:39.539Z,3.46
2018-03-25T03:32:08.773Z,3.24
2018-03-25T03:34:37.029Z,3.41
2018-03-25T03:37:06.249Z,3.41
2018-03-25T03:39:36.999Z,3.54
2018-03-25T03:42:06.101Z,3.33
2018-03-25T03:44:34.360Z,3.23
2018-03-25T03:47:04.895Z,2.93
2018-03-25T03:49:33.923Z,3.01
2018-03-25T03:52:02.406Z,3.05
2018-03-25T03:54:30.653Z,2.69
2018-03-25T03:56:59.704Z,3.03
2018-03-25T03:59:28.161Z,3.13
2018-03-25T04:01:56.662Z,2.95
2018-03-25T04:04:24.942Z,2.89
2018-03-25T04:06:54.151Z,3.06
2018-03-25T04:09:24.220Z,2.79
2018-03-25T04:11:52.476Z,2.87
2018-03-25T04:14:20.762Z,2.86
2018-03-25T04:16:49.017Z,2.82
2018-03-25T04:19:18.052Z,2.91
2018-03-25T04:21:46.316Z,2.94
2018-03-25T04:24:15.392Z,3.11
2018-03-25T04:26:44.825Z,2.86
2018-03-25T04:29:13.105Z,3.18
2018-03-25T04:31:41.379Z,2.93
2018-03-25T04:34:09.660Z,2.85
2018-03-25T04:36:37.947Z,2.99
2018-03-25T04:39:06.973Z,3.07
2018-03-25T04:41:36.010Z,3.23
2018-03-25T04:44:04.359Z,3.04
2018-03-25T04:46:32.613Z,2.97
2018-03-25T04:49:01.660Z,2.74
2018-03-25T04:51:29.914Z,2.97
2018-03-25T04:53:58.229Z,3.02
2018-03-25T04:56:26.516Z,3.04
2018-03-25T04:58:55.577Z,2.91
2018-03-25T05:01:23.865Z,2.84
2018-03-25T05:03:52.957Z,2.86
2018-03-25T05:06:21.247Z,2.70
2018-03-25T05:08:50.137Z,2.83
2018-03-25T05:11:20.004Z,2.73
2018-03-25T05:13:48.252Z,2.59
2018-03-25T05:16:16.557Z,2.64
2018-03-25T05:18:44.808Z,2.40
2018-03-25T05:21:13.155Z,2.46
2018-03-25T05:23:42.263Z,2.51
2018-03-25T05:26:10.540Z,2.53
2018-03-25T05:28:39.554Z,2.52
2018-03-25T05:31:08.852Z,2.54
2018-03-25T05:33:37.125Z,2.53
2018-03-25T05:36:06.172Z,2.36
2018-03-25T05:38:34.699Z,2.52
2018-03-25T05:41:02.977Z,2.70
2018-03-25T05:43:31.263Z,2.66
2018-03-25T05:46:00.474Z,2.41
2018-03-25T05:48:28.736Z,2.08
2018-03-25T05:50:56.996Z,1.94
2018-03-25T05:53:25.273Z,2.39
2018-03-25T05:55:53.654Z,2.27
2018-03-25T05:58:21.927Z,2.27
2018-03-25T06:00:50.943Z,2.26
2018-03-25T06:03:19.225Z,2.55
2018-03-25T06:05:47.676Z,2.57
2018-03-25T06:08:15.944Z,2.66
2018-03-25T06:10:44.240Z,2.72
2018-03-25T06:13:13.283Z,3.01
2018-03-25T06:15:42.340Z,2.86
2018-03-25T06:18:10.603Z,3.26
2018-03-25T06:20:38.857Z,3.23
2018-03-25T06:23:09.092Z,3.25
2018-03-25T06:25:37.360Z,3.29
2018-03-25T06:28:06.385Z,3.54
2018-03-25T06:30:35.153Z,3.66
2018-03-25T06:33:03.629Z,3.48
2018-03-25T06:35:31.896Z,3.45
2018-03-25T06:38:00.286Z,3.98
2018-03-25T06:40:29.695Z,3.69
2018-03-25T06:42:57.979Z,3.62
2018-03-25T06:45:26.335Z,3.86
2018-03-25T06:47:55.739Z,3.90
2018-03-25T06:50:25.153Z,4.13
2018-03-25T06:52:53.415Z,3.94
2018-03-25T06:55:21.684Z,3.71
2018-03-25T06:57:49.977Z,3.62
2018-03-25T07:00:18.282Z,3.64
2018-03-25T07:02:46.588Z,3.70
2018-03-25T07:05:14.870Z,3.85
2018-03-25T07:07:43.127Z,3.80
2018-03-25T07:10:12.342Z,4.02
2018-03-25T07:12:40.590Z,4.09
2018-03-25T07:15:09.762Z,4.24
2018-03-25T07:17:38.039Z,4.16
2018-03-25T07:20:06.306Z,4.40
2018-03-25T07:22:34.605Z,4.51
2018-03-25T07:25:03.054Z,4.66
2018-03-25T07:27:31.567Z,4.67
2018-03-25T07:30:01.413Z,4.85
2018-03-25T07:32:29.717Z,5.05
2018-03-25T07:34:58.895Z,5.12
2018-03-25T07:37:27.211Z,5.40
2018-03-25T07:39:56.556Z,5.76
2018-03-25T07:42:25.061Z,6.09
2018-03-25T07:44:53.374Z,6.28
2018-03-25T07:47:22.503Z,6.12
2018-03-25T07:49:51.003Z,6.01
2018-03-25T07:52:19.291Z,5.95
2018-03-25T07:54:47.724Z,6.01
2018-03-25T07:57:16.754Z,6.17
2018-03-25T07:59:45.033Z,6.32
2018-03-25T08:02:14.256Z,6.21
2018-03-25T08:04:42.545Z,6.40
2018-03-25T08:07:10.790Z,6.23
2018-03-25T08:09:39.062Z,6.23
2018-03-25T08:12:07.340Z,6.13
2018-03-25T08:14:35.788Z,6.49
2018-03-25T08:17:04.973Z,6.62
2018-03-25T08:19:34.917Z,6.59
2018-03-25T08:22:03.168Z,6.59
2018-03-25T08:24:31.476Z,6.68
2018-03-25T08:27:00.740Z,6.82
2018-03-25T08:29:29.894Z,7.18
2018-03-25T08:31:58.177Z,7.21
2018-03-25T08:34:27.302Z,7.63
2018-03-25T08:36:55.687Z,8.09
2018-03-25T08:39:23.975Z,8.65
2018-03-25T08:41:52.238Z,7.94
2018-03-25T08:44:20.514Z,8.08
2018-03-25T08:46:48.991Z,8.32
2018-03-25T08:49:17.263Z,8.15
2018-03-25T08:51:45.584Z,8.05
2018-03-25T08:54:14.803Z,8.28
2018-03-25T08:56:43.112Z,8.05
2018-03-25T08:59:11.354Z,8.94
2018-03-25T09:01:39.606Z,9.47
2018-03-25T09:04:08.094Z,9.83
2018-03-25T09:06:37.083Z,9.95
2018-03-25T09:09:05.310Z,9.62
2018-03-25T09:11:33.747Z,9.26
2018-03-25T09:14:02.039Z,9.45
2018-03-25T09:16:31.189Z,9.60
2018-03-25T09:19:00.446Z,9.64
2018-03-25T09:21:29.600Z,10.05
2018-03-25T09:23:57.940Z,9.94
2018-03-25T09:26:26.219Z,10.59
2018-03-25T09:28:54.525Z,11.09
2018-03-25T09:31:23.682Z,11.89
2018-03-25T09:33:51.968Z,11.96
2018-03-25T09:36:21.268Z,12.91
2018-03-25T09:38:49.600Z,13.23
2018-03-25T09:41:17.854Z,13.97
2018-03-25T09:43:47.055Z,14.88
2018-03-25T09:46:15.352Z,14.87
2018-03-25T09:48:44.399Z,15.04
2018-03-25T09:51:12.687Z,15.03
2018-03-25T09:53:41.667Z,15.84
2018-03-25T09:56:10.074Z,15.26
2018-03-25T09:58:38.324Z,15.17
2018-03-25T10:01:12.177Z,15.41
2018-03-25T10:03:41.419Z,16.04
2018-03-25T10:06:09.725Z,16.34
2018-03-25T10:08:38.005Z,16.31
2018-03-25T10:11:07.310Z,16.71
2018-03-25T10:13:35.603Z,16.96
2018-03-25T10:16:05.578Z,17.52
2018-03-25T10:18:33.924Z,16.98
2018-03-25T10:21:02.946Z,15.81
2018-03-25T10:23:31.223Z,17.38
2018-03-25T10:26:01.217Z,17.53
2018-03-25T10:28:29.520Z,16.28
2018-03-25T10:30:58.097Z,17.16
2018-03-25T10:33:26.408Z,15.35
2018-03-25T10:35:55.565Z,14.22
2018-03-25T10:38:23.862Z,14.16
2018-03-25T10:40:53.116Z,13.21
2018-03-25T10:43:22.521Z,12.98
2018-03-25T10:45:51.669Z,11.91
2018-03-25T10:48:20.595Z,11.53
2018-03-25T10:50:50.820Z,11.57
2018-03-25T10:53:19.422Z,11.54
2018-03-25T10:55:49.718Z,11.54
2018-03-25T10:58:18.401Z,11.87
2018-03-25T11:00:47.244Z,12.04
2018-03-25T11:03:16.647Z,12.81
2018-03-25T11:05:45.496Z,13.12
2018-03-25T11:08:15.096Z,13.11
2018-03-25T11:10:43.772Z,14.52
2018-03-25T11:13:12.355Z,14.99
2018-03-25T11:15:41.010Z,16.45
2018-03-25T11:18:10.853Z,17.48
2018-03-25T11:20:40.068Z,17.58
2018-03-25T11:23:08.557Z,19.36
2018-03-25T11:25:37.392Z,17.65
2018-03-25T11:28:06.747Z,18.10
2018-03-25T11:30:35.618Z,19.43
2018-03-25T11:33:04.320Z,19.45
2018-03-25T11:35:33.387Z,19.82
2018-03-25T11:38:01.901Z,19.95
2018-03-25T11:40:32.285Z,19.82
2018-03-25T11:43:01.505Z,19.14
2018-03-25T11:48:12.529Z,18.78
2018-03-25T11:50:41.134Z,19.28
2018-03-25T11:53:10.524Z,19.11
2018-03-25T11:55:39.686Z,19.37
2018-03-25T11:58:08.278Z,19.40
2018-03-25T12:00:37.432Z,19.16
2018-03-25T12:03:06.304Z,20.09
2018-03-25T12:05:35.637Z,19.57
2018-03-25T12:08:04.036Z,20.18
2018-03-25T12:10:33.227Z,21.48
2018-03-25T12:13:01.561Z,22.30
2018-03-25T12:15:30.176Z,21.61
2018-03-25T12:17:58.765Z,21.08
2018-03-25T12:20:28.170Z,21.14
2018-03-25T12:22:56.587Z,21.45
2018-03-25T12:25:25.101Z,22.83
2018-03-25T12:27:54.516Z,21.68
2018-03-25T12:30:23.909Z,20.48
2018-03-25T12:32:52.764Z,18.88
2018-03-25T12:35:21.450Z,17.90
2018-03-25T12:37:50.824Z,17.08
2018-03-25T12:40:19.382Z,16.65
2018-03-25T12:42:47.965Z,16.59
2018-03-25T12:45:16.554Z,16.43
2018-03-25T12:47:45.255Z,16.10
2018-03-25T12:50:13.667Z,15.26
2018-03-25T12:52:42.267Z,14.83
2018-03-25T12:55:10.881Z,14.93
2018-03-25T12:57:40.425Z,15.14
2018-03-25T13:00:09.828Z,15.20
2018-03-25T13:02:39.184Z,15.16
2018-03-25T13:05:07.791Z,14.80
2018-03-25T13:07:37.276Z,14.85
2018-03-25T13:10:05.889Z,14.84
2018-03-25T13:12:35.513Z,15.13
2018-03-25T13:15:05.259Z,14.92
2018-03-25T13:17:33.834Z,14.75
2018-03-25T13:20:03.470Z,15.18
2018-03-25T13:22:33.040Z,15.34
2018-03-25T13:25:02.168Z,15.24
2018-03-25T13:27:32.129Z,15.45
2018-03-25T13:30:01.256Z,15.48
2018-03-25T13:32:29.901Z,15.46
2018-03-25T13:34:58.618Z,15.68
2018-03-25T13:37:28.217Z,15.42
2018-03-25T13:39:56.819Z,15.58
2018-03-25T13:42:25.672Z,15.20
2018-03-25T13:44:54.295Z,14.62
2018-03-25T13:47:24.396Z,14.64
2018-03-25T13:49:52.953Z,14.81
2018-03-25T13:52:21.759Z,14.89
2018-03-25T13:54:50.565Z,14.84
2018-03-25T13:57:19.155Z,14.94
2018-03-25T13:59:48.595Z,15.09
2018-03-25T14:02:17.880Z,15.38
2018-03-25T14:04:47.742Z,15.10
2018-03-25T14:07:16.233Z,15.33
2018-03-25T14:09:44.673Z,15.10
2018-03-25T14:12:13.177Z,15.32
2018-03-25T14:14:42.540Z,15.57
2018-03-25T14:17:11.227Z,15.39
2018-03-25T14:19:39.702Z,15.41
2018-03-25T14:22:09.166Z,15.33
2018-03-25T14:24:37.805Z,15.42
2018-03-25T14:27:07.521Z,15.63
2018-03-25T14:29:36.235Z,16.12
2018-03-25T14:32:05.241Z,16.28
2018-03-25T14:34:34.749Z,16.77
2018-03-25T14:37:03.374Z,16.84
2018-03-25T14:39:32.116Z,16.70
2018-03-25T14:42:01.718Z,16.29
2018-03-25T14:44:32.034Z,16.21
2018-03-25T14:47:01.139Z,16.23
2018-03-25T14:49:29.838Z,16.31
2018-03-25T14:51:58.188Z,17.00
2018-03-25T14:54:26.556Z,16.92
2018-03-25T14:56:55.181Z,16.62
2018-03-25T14:59:23.823Z,17.17
2018-03-25T15:01:52.675Z,17.38
2018-03-25T15:04:21.863Z,17.62
2018-03-25T15:06:51.382Z,18.33
2018-03-25T15:09:20.199Z,18.60
2018-03-25T15:11:48.781Z,19.57
2018-03-25T15:14:17.727Z,19.39
2018-03-25T15:16:47.103Z,20.25
2018-03-25T15:19:17.407Z,19.79
2018-03-25T15:21:46.446Z,19.18
2018-03-25T15:24:16.202Z,18.05
2018-03-25T15:26:45.378Z,17.01
2018-03-25T15:29:13.943Z,16.37
2018-03-25T15:31:43.282Z,17.01
2018-03-25T15:34:13.059Z,17.62
2018-03-25T15:36:41.800Z,18.03
2018-03-25T15:39:10.201Z,18.23
2018-03-25T15:41:39.428Z,17.77
2018-03-25T15:44:08.034Z,17.79
2018-03-25T15:46:37.124Z,17.50
2018-03-25T15:49:06.096Z,16.69
2018-03-25T15:51:34.731Z,16.47
2018-03-25T15:54:04.800Z,16.11
2018-03-25T15:56:33.830Z,16.20
2018-03-25T15:59:02.447Z,16.07
2018-03-25T16:01:31.093Z,15.98
2018-03-25T16:03:59.967Z,15.65
2018-03-25T16:06:28.673Z,15.97
2018-03-25T16:08:57.477Z,15.55
2018-03-25T16:11:26.042Z,15.75
2018-03-25T16:13:54.922Z,15.85
2018-03-25T16:16:23.816Z,16.62
2018-03-25T16:18:52.760Z,17.11
2018-03-25T16:21:21.173Z,16.99
2018-03-25T16:23:51.674Z,16.94
2018-03-25T16:26:21.319Z,15.89
2018-03-25T16:28:49.804Z,15.36
2018-03-25T16:31:18.844Z,15.52
2018-03-25T16:33:47.790Z,15.59
2018-03-25T16:36:16.250Z,15.87
2018-03-25T16:38:44.711Z,15.66
2018-03-25T16:41:13.346Z,16.02
2018-03-25T16:43:42.622Z,15.90
2018-03-25T16:46:11.529Z,15.72
2018-03-25T16:48:39.916Z,15.51
2018-03-25T16:51:08.509Z,15.26
2018-03-25T16:53:37.736Z,15.07
2018-03-25T16:56:06.067Z,15.12
2018-03-25T16:58:34.334Z,14.88
2018-03-25T17:01:02.730Z,14.63
2018-03-25T17:03:31.770Z,14.59
2018-03-25T17:06:00.123Z,14.09
2018-03-25T17:08:30.173Z,13.96
2018-03-25T17:10:58.474Z,13.75
2018-03-25T17:13:26.950Z,13.52
2018-03-25T17:15:55.263Z,13.28
2018-03-25T17:18:24.671Z,13.13
2018-03-25T17:20:53.711Z,13.10
2018-03-25T17:23:22.022Z,12.94
2018-03-25T17:25:52.021Z,12.85
2018-03-25T17:28:20.588Z,12.74
2018-03-25T17:30:49.125Z,12.59
2018-03-25T17:33:17.559Z,12.50
2018-03-25T17:35:45.869Z,12.48
2018-03-25T17:38:15.067Z,12.40
2018-03-25T17:40:44.152Z,12.34
2018-03-25T17:43:13.411Z,12.22
2018-03-25T17:45:42.578Z,12.07
2018-03-25T17:48:10.885Z,11.99
2018-03-25T17:50:39.235Z,11.99
2018-03-25T17:53:07.523Z,11.83
2018-03-25T17:55:35.909Z,11.73
2018-03-25T17:58:04.186Z,11.58
2018-03-25T18:00:32.491Z,11.58
2018-03-25T18:03:00.800Z,11.46
2018-03-25T18:05:29.891Z,11.40
2018-03-25T18:07:59.729Z,11.40
2018-03-25T18:10:28.039Z,11.30
2018-03-25T18:12:56.412Z,11.28
2018-03-25T18:15:24.768Z,11.24
2018-03-25T18:17:53.175Z,11.16
2018-03-25T18:20:22.057Z,11.21
2018-03-25T18:22:51.112Z,11.09
2018-03-25T18:25:19.962Z,11.03
2018-03-25T18:27:48.426Z,11.06
2018-03-25T18:30:17.242Z,10.94
2018-03-25T18:32:45.936Z,10.86
2018-03-25T18:35:14.884Z,10.71
2018-03-25T18:37:43.649Z,10.64
2018-03-25T18:40:12.493Z,10.71
2018-03-25T18:42:41.524Z,10.52
2018-03-25T18:45:10.065Z,10.41
2018-03-25T18:47:40.016Z,10.42
2018-03-25T18:50:08.682Z,10.37
2018-03-25T18:52:37.312Z,10.33
2018-03-25T18:55:07.135Z,10.25
2018-03-25T18:57:36.845Z,10.36
2018-03-25T19:00:06.436Z,10.34
2018-03-25T19:02:35.344Z,10.18
2018-03-25T19:05:04.471Z,10.15
2018-03-25T19:07:33.539Z,10.01
2018-03-25T19:10:03.261Z,9.90
2018-03-25T19:12:32.296Z,9.78
2018-03-25T19:15:01.694Z,9.68
2018-03-25T19:17:30.430Z,9.56
2018-03-25T19:20:00.380Z,9.67
2018-03-25T19:22:28.982Z,9.54
2018-03-25T19:24:58.320Z,9.36
2018-03-25T19:27:27.056Z,9.63
2018-03-25T19:29:56.475Z,9.59
2018-03-25T19:32:26.617Z,9.30
2018-03-25T19:34:56.017Z,9.14
2018-03-25T19:37:24.758Z,9.10
2018-03-25T19:39:54.619Z,8.85
2018-03-25T19:42:23.296Z,8.69
2018-03-25T19:44:51.702Z,8.71
2018-03-25T19:47:21.199Z,8.73
2018-03-25T19:49:49.548Z,8.96
2018-03-25T19:52:19.507Z,9.27
2018-03-25T19:54:49.073Z,9.27
2018-03-25T19:57:17.904Z,9.08
2018-03-25T19:59:47.449Z,8.82
2018-03-25T20:02:15.839Z,8.88
2018-03-25T20:04:46.087Z,8.62
2018-03-25T20:07:15.117Z,8.44
2018-03-25T20:09:43.506Z,8.80
2018-03-25T20:12:11.799Z,8.58
2018-03-25T20:14:40.263Z,8.51
2018-03-25T20:17:08.596Z,8.53
2018-03-25T20:19:37.845Z,8.59
2018-03-25T20:22:06.241Z,8.46
2018-03-25T20:24:34.522Z,8.53
2018-03-25T20:27:03.050Z,8.50
2018-03-25T20:29:31.417Z,8.36
2018-03-25T20:32:00.706Z,8.43
2018-03-25T20:34:29.736Z,8.50
2018-03-25T20:36:58.082Z,8.31
2018-03-25T20:39:27.129Z,8.37
2018-03-25T20:41:55.637Z,8.16
2018-03-25T20:44:24.088Z,8.14
2018-03-25T20:46:52.364Z,8.01
2018-03-25T20:49:20.662Z,8.29
2018-03-25T20:51:49.115Z,8.45
2018-03-25T20:54:17.487Z,8.04
2018-03-25T20:56:46.328Z,7.91
2018-03-25T20:59:15.407Z,7.93
2018-03-25T21:01:44.442Z,7.77
2018-03-25T21:04:12.793Z,7.75
2018-03-25T21:06:41.838Z,7.64
2018-03-25T21:09:10.459Z,8.10
2018-03-25T21:11:39.558Z,7.91
2018-03-25T21:14:13.816Z,7.75
2018-03-25T21:16:42.150Z,7.87
2018-03-25T21:19:11.273Z,7.83
2018-03-25T21:21:39.602Z,7.53
2018-03-25T21:24:08.116Z,7.36
2018-03-25T21:26:36.406Z,7.00
2018-03-25T21:29:04.665Z,7.00
2018-03-25T21:31:32.944Z,7.07
2018-03-25T21:34:01.229Z,6.95
2018-03-25T21:36:29.522Z,6.70
2018-03-25T21:38:57.848Z,6.68
2018-03-25T21:41:26.136Z,6.78
2018-03-25T21:43:55.751Z,6.70
2018-03-25T21:46:24.381Z,6.90
2018-03-25T21:48:52.651Z,6.83
2018-03-25T21:51:20.937Z,6.78
2018-03-25T21:53:49.219Z,6.68
2018-03-25T21:56:17.553Z,6.61
2018-03-25T21:58:45.988Z,6.75
2018-03-25T22:01:14.391Z,6.76
2018-03-25T22:03:42.657Z,6.66
2018-03-25T22:06:11.745Z,6.72
2018-03-25T22:08:40.162Z,6.54
2018-03-25T22:11:08.450Z,6.35
2018-03-25T22:13:36.808Z,6.52
2018-03-25T22:16:05.140Z,6.62
2018-03-25T22:21:37.164Z,6.38
2018-03-25T22:24:05.438Z,6.39
2018-03-25T22:26:34.593Z,6.41
2018-03-25T22:29:02.919Z,6.50
2018-03-25T22:31:31.207Z,6.30
2018-03-25T22:33:59.506Z,6.33
2018-03-25T22:36:27.770Z,6.25
2018-03-25T22:38:56.110Z,6.28
2018-03-25T22:41:25.116Z,6.33
2018-03-25T22:43:53.396Z,6.41
2018-03-25T22:46:21.685Z,6.48
2018-03-25T22:48:49.976Z,6.26
2018-03-25T22:51:18.241Z,6.10
2018-03-25T22:53:46.509Z,6.34
2018-03-25T22:56:15.779Z,6.32
2018-03-25T22:58:44.064Z,6.33
2018-03-25T23:01:12.349Z,6.33
2018-03-25T23:03:40.628Z,6.33
2018-03-25T23:06:08.903Z,6.23
2018-03-25T23:08:37.951Z,6.17
2018-03-25T23:11:06.249Z,6.36
2018-03-25T23:13:34.520Z,6.27
2018-03-25T23:16:03.760Z,6.23
2018-03-25T23:18:32.037Z,6.22
2018-03-25T23:21:00.350Z,6.35
2018-03-25T23:23:29.369Z,6.35
2018-03-25T23:25:57.643Z,6.37
2018-03-25T23:28:25.916Z,6.53
2018-03-25T23:30:54.186Z,6.75
2018-03-25T23:33:22.530Z,6.57
2018-03-25T23:35:51.593Z,6.52
2018-03-25T23:38:19.856Z,6.49
2018-03-25T23:40:48.128Z,6.38
2018-03-25T23:43:16.403Z,6.42
2018-03-25T23:45:44.712Z,6.24
2018-03-25T23:48:13.058Z,6.22
2018-03-25T23:50:42.271Z,6.38
2018-03-25T23:53:10.551Z,6.25
2018-03-25T23:55:38.848Z,6.50
2018-03-25T23:58:07.877Z,6.51
